Terminal Aerodrome Forecast
Issued by NWS St Louis, MO

Home | Current Version | Previous Version | Text Only | Print | Product List | Glossary Off
Versions: 1 2 3 4 5 6 7 8 9 10 11 12 13 14 15 16 17 18 19 20 21 22 23 24 25 26

000
FTUS43 KLSX 270520
TAFSTL
TAF
KSTL 270520Z 2706/2812 VRB04KT P6SM BKN120
     FM270900 VRB04KT P6SM VCSH SCT030 OVC080
     FM271100 10005KT 5SM -SHRA OVC030
     FM271300 11007KT 4SM SHRA OVC015
     FM271800 18007KT P6SM VCTS OVC020CB
     FM272300 31006KT P6SM OVC030
     FM280300 33007KT P6SM BKN015=

USA.gov is the U.S. government's official web portal to all federal, state and local government web resources and services.